Time;durP1;ratioP1;P1;durP2;ratioP2;P2;SDS_P1;SDS_P2;PMS_P1;PMS_P2;Temp;Humidity;BMP_temperature;BMP_pressure;BME280_temperature;BME280_humidity;BME280_pressure;Samples;Min_cycle;Max_cycle;Signal;HPM_P1;HPM_P2
2022/02/15 00:02:38;;;;;;;;;;;;;;;-0.96;72.52;98151.54;218491;1277;22555;-68
2022/02/15 00:07:45;;;;;;;;;;;;;;;-0.97;72.48;98148.75;218416;1277;22554;-67
2022/02/15 00:18:55;;;;;;;;;;;;;;;-1.00;72.88;98143.40;218511;1277;22561;-67
2022/02/15 00:24:12;;;;;;;;;;;;;;;-1.05;72.75;98147.89;218880;1277;25318;-67
2022/02/15 00:29:17;;;;;;;;;;;;;;;-1.13;72.80;98148.37;218672;1277;23042;-68
2022/02/15 00:34:22;;;;;;;;;;;;;;;-1.21;72.71;98147.34;218645;1277;22600;-68
2022/02/15 00:39:24;;;;;;;;;;;;;;;-1.29;72.91;98145.59;218514;1277;22691;-68
2022/02/15 00:44:27;;;;;;;;;;;;;;;-1.36;73.03;98140.42;218902;1277;24332;-69
2022/02/15 00:49:30;;;;;;;;;;;;;;;-1.44;73.20;98136.98;218896;1277;22537;-67
2022/02/15 00:54:39;;;;;;;;;;;;;;;-1.51;73.20;98139.80;218527;1277;22712;-67
2022/02/15 00:59:50;;;;;;;;;;;;;;;-1.56;73.24;98143.30;218561;1278;24388;-67
2022/02/15 01:04:58;;;;;;;;;;;;;;;-1.60;73.63;98136.77;218715;1277;22579;-67
2022/02/15 01:10:03;;;;;;;;;;;;;;;-1.64;73.59;98125.20;218535;1277;22558;-70
2022/02/15 01:15:16;;;;;;;;;;;;;;;;;;;;;
2022/02/15 01:20:19;;;;;;;;;;;;;;;-1.74;73.42;98118.95;218582;1277;22591;-68
2022/02/15 01:25:25;;;;;;;;;;;;;;;-1.76;73.60;98117.08;218576;1277;22611;-68
2022/02/15 01:30:38;;;;;;;;;;;;;;;-1.76;73.94;98111.66;218542;1277;24804;-68
2022/02/15 01:35:43;;;;;;;;;;;;;;;-1.73;74.12;98109.37;218719;1278;24269;-68
2022/02/15 01:40:48;;;;;;;;;;;;;;;-1.73;74.33;98107.79;218934;1278;22567;-68
2022/02/15 01:45:50;;;;;;;;;;;;;;;-1.75;74.28;98101.19;218671;1278;22541;-68
2022/02/15 01:51:03;;;;;;;;;;;;;;;;;;;;;
2022/02/15 01:56:08;;;;;;;;;;;;;;;-1.77;74.62;98092.01;218726;1278;25615;-68
2022/02/15 02:01:27;;;;;;;;;;;;;;;-1.76;74.71;98081.73;218615;1279;22614;-68
2022/02/15 02:06:48;;;;;;;;;;;;;;;-1.74;74.89;98080.29;218767;1279;25216;-68
2022/02/15 02:12:03;;;;;;;;;;;;;;;-1.74;74.80;98078.27;218535;1279;22690;-68
2022/02/15 02:17:24;;;;;;;;;;;;;;;-1.73;74.98;98078.01;218542;1278;22585;-67
2022/02/15 02:22:28;;;;;;;;;;;;;;;-1.73;75.15;98079.06;218632;1277;24238;-67
2022/02/15 02:27:33;;;;;;;;;;;;;;;-1.74;74.96;98081.93;218856;1278;25793;-68
2022/02/15 02:33:00;;;;;;;;;;;;;;;;;;;;;
2022/02/15 02:38:55;;;;;;;;;;;;;;;-1.74;75.41;98092.81;218559;1279;24320;-67
2022/02/15 02:45:02;;;;;;;;;;;;;;;;;;;;;
2022/02/15 02:50:38;;;;;;;;;;;;;;;;;;;;;
2022/02/15 02:56:09;;;;;;;;;;;;;;;-1.81;75.22;98096.02;218528;1279;22685;-68
2022/02/15 03:02:04;;;;;;;;;;;;;;;-1.86;75.22;98084.30;218719;1278;22527;-67
2022/02/15 03:14:07;;;;;;;;;;;;;;;;;;;;;
2022/02/15 03:20:09;;;;;;;;;;;;;;;-1.74;75.95;98100.57;218532;1279;25259;-68
2022/02/15 03:26:07;;;;;;;;;;;;;;;;;;;;;
2022/02/15 03:32:15;;;;;;;;;;;;;;;-1.63;75.99;98126.42;218635;1278;25268;-68
2022/02/15 03:37:45;;;;;;;;;;;;;;;-1.62;76.05;98115.95;218744;1278;22666;-68
2022/02/15 03:43:46;;;;;;;;;;;;;;;-1.59;76.42;98114.49;218370;1278;24407;-68
2022/02/15 03:49:31;;;;;;;;;;;;;;;-1.57;76.43;98106.57;218386;1278;24453;-66
2022/02/15 03:55:26;;;;;;;;;;;;;;;;;;;;;
2022/02/15 04:00:56;;;;;;;;;;;;;;;-1.42;76.84;98097.77;218705;1278;22650;-68
2022/02/15 04:06:03;;;;;;;;;;;;;;;-1.37;76.64;98095.94;218751;1279;22534;-67
2022/02/15 04:11:07;;;;;;;;;;;;;;;-1.44;76.11;98099.91;218728;1279;25377;-69
2022/02/15 04:16:29;;;;;;;;;;;;;;;-1.46;76.66;98098.40;218589;1279;22538;-66
2022/02/15 04:21:47;;;;;;;;;;;;;;;-1.42;76.83;98087.99;218576;1278;22556;-68
2022/02/15 04:26:51;;;;;;;;;;;;;;;-1.42;76.86;98093.31;218664;1279;26378;-67
2022/02/15 04:31:55;;;;;;;;;;;;;;;-1.44;76.60;98099.18;218842;1279;24280;-68
2022/02/15 04:37:24;;;;;;;;;;;;;;;-1.48;76.61;98096.00;218640;1278;22548;-69
2022/02/15 04:42:40;;;;;;;;;;;;;;;-1.55;76.88;98100.41;218595;1278;22762;-67
2022/02/15 04:48:04;;;;;;;;;;;;;;;-1.58;77.01;98107.69;218638;1278;22598;-69
2022/02/15 04:53:40;;;;;;;;;;;;;;;-1.60;76.94;98114.63;218597;1278;22936;-67
2022/02/15 04:59:20;;;;;;;;;;;;;;;-1.61;77.22;98120.45;218544;1279;26394;-68
2022/02/15 05:09:50;;;;;;;;;;;;;;;-1.54;77.81;98125.86;218848;1278;24212;-67
2022/02/15 05:14:56;;;;;;;;;;;;;;;-1.51;77.90;98121.77;218601;1279;22549;-68
2022/02/15 05:20:47;;;;;;;;;;;;;;;-1.50;77.79;98128.01;218859;1279;22531;-67
2022/02/15 05:26:12;;;;;;;;;;;;;;;-1.48;78.15;98133.08;218442;1279;25376;-67
2022/02/15 05:31:49;;;;;;;;;;;;;;;-1.44;78.21;98136.09;218589;1278;22684;-68
2022/02/15 05:37:28;;;;;;;;;;;;;;;-1.34;78.35;98143.79;218548;1278;25569;-67
2022/02/15 05:43:13;;;;;;;;;;;;;;;;;;;;;
2022/02/15 05:48:49;;;;;;;;;;;;;;;-1.02;78.71;98150.14;218653;1278;25476;-67
2022/02/15 05:54:28;;;;;;;;;;;;;;;-0.85;78.95;98151.80;218642;1279;22966;-68
2022/02/15 06:00:28;;;;;;;;;;;;;;;-0.65;79.02;98155.16;218633;1279;22550;-66
2022/02/15 06:05:50;;;;;;;;;;;;;;;-0.48;78.71;98157.89;218707;1280;22794;-67
2022/02/15 06:10:58;;;;;;;;;;;;;;;-0.41;78.63;98153.25;218571;1279;24258;-69
2022/02/15 06:22:40;;;;;;;;;;;;;;;;;;;;;
2022/02/15 06:28:13;;;;;;;;;;;;;;;-0.29;78.70;98176.08;218550;1278;25492;-68
2022/02/15 06:33:22;;;;;;;;;;;;;;;-0.19;79.30;98186.16;218561;1278;24253;-68
2022/02/15 06:38:25;;;;;;;;;;;;;;;-0.03;79.59;98198.09;218510;1279;23201;-67
2022/02/15 06:43:58;;;;;;;;;;;;;;;0.22;79.57;98207.52;218211;1278;22541;-68
2022/02/15 06:49:38;;;;;;;;;;;;;;;0.49;79.91;98210.70;218207;1277;22625;-68
2022/02/15 06:55:03;;;;;;;;;;;;;;;0.76;80.02;98213.02;218303;1277;22587;-67
2022/02/15 07:00:10;;;;;;;;;;;;;;;1.06;80.16;98210.02;218132;1278;22474;-68
2022/02/15 07:05:36;;;;;;;;;;;;;;;1.38;79.44;98212.34;218039;1276;26382;-69
2022/02/15 07:10:54;;;;;;;;;;;;;;;1.65;79.54;98206.89;218135;1279;24205;-67
2022/02/15 07:16:21;;;;;;;;;;;;;;;2.00;79.49;98206.71;218316;1277;22954;-67
2022/02/15 07:21:56;;;;;;;;;;;;;;;2.19;78.83;98211.95;218195;1277;24733;-68
2022/02/15 07:27:44;;;;;;;;;;;;;;;2.52;79.15;98220.27;218023;1278;25333;-69
2022/02/15 07:33:00;;;;;;;;;;;;;;;2.78;78.57;98230.69;218016;1277;22548;-68
2022/02/15 07:38:13;;;;;;;;;;;;;;;3.00;78.49;98234.17;218183;1277;22640;-68
2022/02/15 07:49:05;;;;;;;;;;;;;;;3.63;78.64;98246.48;218063;1277;26351;-69
2022/02/15 07:54:44;;;;;;;;;;;;;;;;;;;;;
2022/02/15 07:59:50;;;;;;;;;;;;;;;4.32;77.50;98248.56;218132;1277;22534;-68
2022/02/15 08:04:55;;;;;;;;;;;;;;;4.56;76.99;98256.23;217983;1277;24102;-68
2022/02/15 08:10:20;;;;;;;;;;;;;;;4.75;76.16;98251.49;217941;1276;25536;-69
2022/02/15 08:16:02;;;;;;;;;;;;;;;4.93;75.60;98246.95;218087;1277;22547;-69
2022/02/15 08:21:54;;;;;;;;;;;;;;;5.21;75.09;98244.42;217906;1278;24796;-68
2022/02/15 08:26:59;;;;;;;;;;;;;;;5.49;74.30;98250.62;218034;1277;22973;-68
2022/02/15 08:32:08;;;;;;;;;;;;;;;5.77;73.82;98255.15;217776;1276;24502;-67
2022/02/15 08:37:11;;;;;;;;;;;;;;;5.89;72.91;98254.11;217833;1278;25381;-67
2022/02/15 08:42:14;;;;;;;;;;;;;;;5.93;72.60;98253.73;218002;1277;25495;-67
2022/02/15 08:47:18;;;;;;;;;;;;;;;5.97;72.03;98262.77;218359;1277;26584;-68
2022/02/15 08:52:23;;;;;;;;;;;;;;;6.00;71.61;98270.98;217756;1277;22708;-68
2022/02/15 08:57:44;;;;;;;;;;;;;;;6.05;71.76;98271.70;218287;1276;22659;-67
2022/02/15 09:02:58;;;;;;;;;;;;;;;6.18;71.77;98276.91;217699;1277;22545;-67
2022/02/15 09:08:24;;;;;;;;;;;;;;;6.34;70.61;98280.64;217980;1277;25250;-69
2022/02/15 09:13:32;;;;;;;;;;;;;;;6.59;70.38;98280.38;217883;1281;25375;-69
2022/02/15 09:18:40;;;;;;;;;;;;;;;6.64;69.53;98286.14;217716;1277;22988;-68
2022/02/15 09:23:59;;;;;;;;;;;;;;;6.72;69.99;98294.67;217843;1278;24414;-68
2022/02/15 09:29:18;;;;;;;;;;;;;;;6.76;69.17;98293.70;217966;1278;25553;-66
2022/02/15 09:34:23;;;;;;;;;;;;;;;6.84;69.33;98297.59;218331;1277;24178;-69
2022/02/15 09:39:48;;;;;;;;;;;;;;;6.92;69.50;98302.23;218016;1278;24352;-69
2022/02/15 09:45:08;;;;;;;;;;;;;;;7.07;69.49;98303.58;218707;1276;24362;-68
2022/02/15 09:50:23;;;;;;;;;;;;;;;7.17;68.41;98303.56;217942;1278;24438;-68
2022/02/15 09:55:28;;;;;;;;;;;;;;;7.24;67.73;98308.42;217976;1277;22563;-68
2022/02/15 10:00:49;;;;;;;;;;;;;;;;;;;;;
2022/02/15 10:06:24;;;;;;;;;;;;;;;7.51;67.41;98301.55;218033;1278;22598;-68
2022/02/15 10:12:06;;;;;;;;;;;;;;;7.61;67.33;98299.33;218029;1277;22636;-68
2022/02/15 10:17:24;;;;;;;;;;;;;;;7.64;67.13;98307.02;217744;1278;22653;-69
2022/02/15 10:22:26;;;;;;;;;;;;;;;7.74;66.83;98304.80;218038;1278;22805;-69
2022/02/15 10:27:30;;;;;;;;;;;;;;;7.89;67.38;98303.55;217653;1277;25252;-68
2022/02/15 10:33:20;;;;;;;;;;;;;;;7.99;65.69;98313.02;218414;1277;22557;-69
2022/02/15 10:38:41;;;;;;;;;;;;;;;8.06;65.60;98312.49;217826;1277;24253;-68
2022/02/15 10:44:01;;;;;;;;;;;;;;;8.30;65.78;98314.23;218088;1277;22584;-68
2022/02/15 10:49:12;;;;;;;;;;;;;;;8.56;65.54;98313.35;218421;1277;25562;-68
2022/02/15 10:54:28;;;;;;;;;;;;;;;8.86;64.88;98309.93;218227;1278;22534;-67
2022/02/15 10:59:34;;;;;;;;;;;;;;;9.06;63.82;98308.39;218125;1277;22535;-68
2022/02/15 11:05:08;;;;;;;;;;;;;;;9.37;63.34;98313.48;217903;1277;22641;-67
2022/02/15 11:10:27;;;;;;;;;;;;;;;9.65;62.20;98310.18;215926;1277;2954639;-67
2022/02/15 11:15:41;;;;;;;;;;;;;;;9.85;60.57;98308.03;218053;1277;25261;-67
2022/02/15 11:20:52;;;;;;;;;;;;;;;10.05;61.30;98307.23;218352;1277;24244;-67
2022/02/15 11:26:17;;;;;;;;;;;;;;;10.38;60.89;98307.92;218218;1278;24272;-68
2022/02/15 11:31:24;;;;;;;;;;;;;;;10.46;59.71;98309.55;218068;1278;22583;-68
2022/02/15 11:36:26;;;;;;;;;;;;;;;10.58;59.73;98316.39;218088;1277;25438;-69
2022/02/15 11:41:40;;;;;;;;;;;;;;;10.62;59.53;98323.64;218405;1277;22894;-67
2022/02/15 11:46:53;;;;;;;;;;;;;;;10.56;58.51;98330.73;218591;1277;24232;-68
2022/02/15 11:51:58;;;;;;;;;;;;;;;10.34;57.85;98337.65;217970;1277;22607;-67
2022/02/15 11:57:00;;;;;;;;;;;;;;;10.08;58.54;98331.22;218026;1278;23104;-67
2022/02/15 12:02:12;;;;;;;;;;;;;;;10.07;59.08;98326.42;218061;1278;25170;-67
2022/02/15 12:07:25;;;;;;;;;;;;;;;10.14;59.35;98328.70;218212;1277;22703;-66
2022/02/15 12:12:47;;;;;;;;;;;;;;;10.16;58.69;98329.86;218234;1277;22733;-66
2022/02/15 12:18:01;;;;;;;;;;;;;;;9.99;58.40;98330.64;218132;1278;24212;-67
2022/02/15 12:23:47;;;;;;;;;;;;;;;;;;;;;
2022/02/15 12:29:18;;;;;;;;;;;;;;;10.06;59.15;98325.36;218133;1278;25392;-67
2022/02/15 12:34:38;;;;;;;;;;;;;;;9.99;58.44;98326.56;217972;1278;22538;-68
2022/02/15 12:40:10;;;;;;;;;;;;;;;9.92;58.12;98324.06;217946;1277;22597;-66
2022/02/15 12:45:18;;;;;;;;;;;;;;;9.97;58.74;98327.52;218089;1277;22552;-66
2022/02/15 12:50:33;;;;;;;;;;;;;;;10.05;58.29;98328.65;218279;1277;22937;-67
2022/02/15 12:55:52;;;;;;;;;;;;;;;10.02;58.53;98321.05;218456;1278;22635;-67
2022/02/15 13:01:10;;;;;;;;;;;;;;;10.01;58.91;98315.23;218053;1277;24101;-67
2022/02/15 13:06:38;;;;;;;;;;;;;;;9.98;58.77;98313.30;218053;1277;22688;-66
2022/02/15 13:12:12;;;;;;;;;;;;;;;9.83;58.11;98307.42;218552;1277;25428;-67
2022/02/15 13:17:36;;;;;;;;;;;;;;;9.69;57.98;98321.35;218424;1278;24286;-67
2022/02/15 13:22:38;;;;;;;;;;;;;;;9.63;58.53;98324.94;218132;1278;22624;-67
2022/02/15 13:28:00;;;;;;;;;;;;;;;9.67;58.52;98323.86;218600;1277;22548;-67
2022/02/15 13:33:20;;;;;;;;;;;;;;;9.64;58.32;98318.60;218148;1278;22769;-68
2022/02/15 13:38:25;;;;;;;;;;;;;;;9.60;57.97;98319.80;218029;1277;23498;-67
2022/02/15 13:43:52;;;;;;;;;;;;;;;9.51;57.89;98316.73;218094;1277;22664;-65
2022/02/15 13:49:12;;;;;;;;;;;;;;;9.40;58.23;98317.75;218354;1277;25422;-68
2022/02/15 13:54:17;;;;;;;;;;;;;;;9.30;58.34;98317.16;218055;1277;22731;-67
2022/02/15 13:59:27;;;;;;;;;;;;;;;9.24;58.38;98316.02;218078;1277;22539;-67
2022/02/15 14:04:54;;;;;;;;;;;;;;;9.14;58.25;98321.56;218642;1278;22666;-67
2022/02/15 14:10:00;;;;;;;;;;;;;;;9.02;58.34;98326.75;218112;1278;25440;-66
2022/02/15 14:15:28;;;;;;;;;;;;;;;8.96;59.06;98330.10;218143;1277;22545;-66
2022/02/15 14:21:00;;;;;;;;;;;;;;;8.97;59.53;98331.69;218304;1278;22553;-66
2022/02/15 14:26:16;;;;;;;;;;;;;;;8.99;60.02;98331.39;218042;1277;24371;-66
2022/02/15 14:31:24;;;;;;;;;;;;;;;9.02;60.29;98334.73;218013;1277;22561;-67
2022/02/15 14:36:30;;;;;;;;;;;;;;;9.02;60.53;98332.91;218006;1276;26446;-67
2022/02/15 14:42:08;;;;;;;;;;;;;;;9.02;60.73;98340.28;218100;1277;25309;-65
2022/02/15 14:47:35;;;;;;;;;;;;;;;8.94;60.78;98344.13;218074;1278;22558;-66
2022/02/15 14:53:16;;;;;;;;;;;;;;;8.83;61.06;98344.91;218303;1278;26414;-67
2022/02/15 14:58:49;;;;;;;;;;;;;;;;;;;;;
2022/02/15 15:04:13;;;;;;;;;;;;;;;8.53;61.12;98355.09;218110;1277;22553;-68
2022/02/15 15:09:52;;;;;;;;;;;;;;;8.38;61.05;98353.73;218182;1277;22566;-68
2022/02/15 15:15:03;;;;;;;;;;;;;;;8.26;61.27;98357.61;218115;1278;24267;-68
2022/02/15 15:20:09;;;;;;;;;;;;;;;8.12;61.34;98364.63;218853;1277;22535;-68
2022/02/15 15:25:21;;;;;;;;;;;;;;;7.98;60.52;98359.80;218445;1278;22545;-68
2022/02/15 15:30:29;;;;;;;;;;;;;;;7.81;60.75;98353.29;218351;1277;22615;-68
2022/02/15 15:36:01;;;;;;;;;;;;;;;;;;;;;
2022/02/15 15:41:42;;;;;;;;;;;;;;;7.46;61.15;98362.67;218551;1278;22543;-67
2022/02/15 15:46:56;;;;;;;;;;;;;;;7.33;61.29;98366.48;218524;1277;22524;-68
2022/02/15 15:52:10;;;;;;;;;;;;;;;7.23;61.44;98371.92;218598;1277;22474;-69
2022/02/15 15:57:29;;;;;;;;;;;;;;;7.13;61.81;98368.17;218879;1277;26170;-67
2022/02/15 16:02:43;;;;;;;;;;;;;;;7.01;61.85;98370.45;218843;1277;24250;-67
2022/02/15 16:07:52;;;;;;;;;;;;;;;6.90;62.26;98377.39;218976;1277;25510;-68
2022/02/15 16:13:05;;;;;;;;;;;;;;;6.79;62.49;98374.88;218793;1277;23028;-68
2022/02/15 16:18:28;;;;;;;;;;;;;;;6.66;62.63;98376.48;218692;1277;24097;-68
2022/02/15 16:24:03;;;;;;;;;;;;;;;6.55;62.89;98383.05;218716;1277;22610;-64
2022/02/15 16:29:43;;;;;;;;;;;;;;;;;;;;;
2022/02/15 16:35:27;;;;;;;;;;;;;;;6.32;63.50;98390.67;218703;1279;22760;-68
2022/02/15 16:40:29;;;;;;;;;;;;;;;6.20;63.95;98394.20;218942;1277;22551;-66
2022/02/15 16:45:38;;;;;;;;;;;;;;;6.07;64.32;98402.25;218744;1277;22545;-66
2022/02/15 16:50:45;;;;;;;;;;;;;;;5.94;64.26;98404.38;218910;1277;24219;-68
2022/02/15 16:55:50;;;;;;;;;;;;;;;5.80;64.65;98403.56;218689;1279;22577;-65
2022/02/15 17:01:02;;;;;;;;;;;;;;;5.67;65.28;98408.77;218704;1278;24258;-67
2022/02/15 17:06:05;;;;;;;;;;;;;;;5.54;65.53;98413.70;218773;1277;24425;-67
2022/02/15 17:11:19;;;;;;;;;;;;;;;5.41;65.50;98417.19;218819;1278;24322;-68
2022/02/15 17:16:24;;;;;;;;;;;;;;;5.29;65.70;98418.86;218777;1277;24194;-68
2022/02/15 17:21:31;;;;;;;;;;;;;;;5.16;65.79;98417.94;218629;1277;25380;-66
2022/02/15 17:26:36;;;;;;;;;;;;;;;5.03;65.94;98420.06;218798;1277;25346;-68
2022/02/15 17:32:11;;;;;;;;;;;;;;;4.89;66.19;98421.33;218721;1277;25811;-68
2022/02/15 17:37:15;;;;;;;;;;;;;;;4.77;66.44;98420.54;219003;1277;26292;-68
2022/02/15 17:42:19;;;;;;;;;;;;;;;4.66;66.66;98423.90;218736;1278;26104;-69
2022/02/15 17:47:23;;;;;;;;;;;;;;;4.59;66.99;98435.73;218788;1277;23359;-68
2022/02/15 17:52:40;;;;;;;;;;;;;;;4.51;67.08;98435.59;218747;1277;22596;-68
2022/02/15 17:57:47;;;;;;;;;;;;;;;4.44;67.30;98439.52;218637;1278;22570;-65
2022/02/15 18:03:09;;;;;;;;;;;;;;;4.40;67.43;98444.65;218817;1277;23018;-67
2022/02/15 18:08:27;;;;;;;;;;;;;;;4.39;67.77;98443.63;218715;1278;25384;-68
2022/02/15 18:13:42;;;;;;;;;;;;;;;4.39;67.98;98439.06;218746;1278;22809;-68
2022/02/15 18:18:47;;;;;;;;;;;;;;;4.41;68.08;98438.23;219019;1277;24250;-67
2022/02/15 18:24:01;;;;;;;;;;;;;;;4.44;68.40;98438.15;218714;1277;25528;-68
2022/02/15 18:29:05;;;;;;;;;;;;;;;4.48;68.46;98430.36;218926;1277;24454;-67
2022/02/15 18:34:08;;;;;;;;;;;;;;;4.55;68.48;98436.20;218609;1278;22715;-69
2022/02/15 18:39:10;;;;;;;;;;;;;;;4.60;68.48;98443.44;218723;1278;22535;-69
2022/02/15 18:44:13;;;;;;;;;;;;;;;4.60;68.56;98448.84;219624;1277;25409;-68
2022/02/15 18:49:15;;;;;;;;;;;;;;;4.60;68.49;98459.41;219923;1277;22547;-67
2022/02/15 18:54:20;;;;;;;;;;;;;;;4.62;68.58;98462.29;219347;1278;25445;-68
2022/02/15 18:59:22;;;;;;;;;;;;;;;4.66;68.71;98461.52;218638;1277;22557;-68
2022/02/15 19:04:25;;;;;;;;;;;;;;;4.69;68.61;98455.16;218737;1277;22781;-68
2022/02/15 19:09:30;;;;;;;;;;;;;;;4.71;68.69;98449.91;218756;1278;22545;-67
2022/02/15 19:14:32;;;;;;;;;;;;;;;4.74;68.67;98448.98;218703;1277;23939;-68
2022/02/15 19:19:38;;;;;;;;;;;;;;;4.74;68.82;98446.80;218895;1277;26484;-68
2022/02/15 19:24:44;;;;;;;;;;;;;;;4.73;68.90;98447.80;218593;1277;22740;-68
2022/02/15 19:30:06;;;;;;;;;;;;;;;4.71;68.91;98456.60;218812;1277;22548;-68
2022/02/15 19:35:10;;;;;;;;;;;;;;;4.72;68.91;98456.30;218762;1277;22591;-69
2022/02/15 19:40:13;;;;;;;;;;;;;;;4.74;69.16;98461.02;218785;1277;22949;-68
2022/02/15 19:45:15;;;;;;;;;;;;;;;4.72;69.07;98469.81;218609;1277;22690;-68
2022/02/15 19:50:55;;;;;;;;;;;;;;;4.68;69.09;98470.91;218684;1277;24806;-68
2022/02/15 19:56:00;;;;;;;;;;;;;;;4.64;69.24;98471.16;218813;1277;26404;-68
2022/02/15 20:01:05;;;;;;;;;;;;;;;4.58;69.48;98475.52;218868;1277;22541;-67
2022/02/15 20:06:25;;;;;;;;;;;;;;;4.45;69.52;98480.16;218782;1277;22551;-68
2022/02/15 20:11:47;;;;;;;;;;;;;;;4.33;69.73;98482.89;218735;1277;25455;-67
2022/02/15 20:16:57;;;;;;;;;;;;;;;4.24;70.08;98484.05;218671;1278;22633;-68
2022/02/15 20:22:02;;;;;;;;;;;;;;;4.19;70.28;98475.73;218550;1279;22570;-67
2022/02/15 20:27:10;;;;;;;;;;;;;;;4.16;70.43;98474.91;218694;1278;22972;-68
2022/02/15 20:32:31;;;;;;;;;;;;;;;4.18;70.73;98471.59;218678;1277;22570;-68
2022/02/15 20:38:15;;;;;;;;;;;;;;;;;;;;;
2022/02/15 20:43:35;;;;;;;;;;;;;;;4.19;70.74;98487.45;218683;1278;22537;-68
2022/02/15 20:49:03;;;;;;;;;;;;;;;4.19;71.00;98485.27;218805;1279;24244;-68
2022/02/15 20:54:05;;;;;;;;;;;;;;;4.23;71.38;98484.21;218635;1279;22539;-68
2022/02/15 20:59:53;;;;;;;;;;;;;;;4.31;71.76;98475.35;218699;1278;24367;-68
2022/02/15 21:05:20;;;;;;;;;;;;;;;4.40;71.70;98474.23;218751;1279;25292;-68
2022/02/15 21:11:00;;;;;;;;;;;;;;;;;;;;;
2022/02/15 21:16:52;;;;;;;;;;;;;;;4.60;71.82;98476.43;218575;1279;25367;-65
2022/02/15 21:22:14;;;;;;;;;;;;;;;;;;;;;
2022/02/15 21:27:16;;;;;;;;;;;;;;;4.75;71.92;98462.02;218884;1278;22560;-67
2022/02/15 21:32:22;;;;;;;;;;;;;;;4.82;71.66;98455.80;218665;1278;25604;-68
2022/02/15 21:38:03;;;;;;;;;;;;;;;;;;;;;
2022/02/15 21:43:25;;;;;;;;;;;;;;;4.89;71.51;98469.12;218604;1278;24146;-68
2022/02/15 21:48:45;;;;;;;;;;;;;;;4.87;71.71;98469.05;218638;1278;24326;-68
2022/02/15 21:53:50;;;;;;;;;;;;;;;4.84;71.40;98465.16;218561;1279;24366;-67
2022/02/15 21:59:15;;;;;;;;;;;;;;;;;;;;;
2022/02/15 22:04:35;;;;;;;;;;;;;;;4.73;71.23;98453.42;218744;1278;24294;-68
2022/02/15 22:10:14;;;;;;;;;;;;;;;4.67;71.14;98444.69;218749;1278;25461;-67
2022/02/15 22:15:19;;;;;;;;;;;;;;;4.63;71.12;98445.14;218676;1278;22560;-68
2022/02/15 22:20:24;;;;;;;;;;;;;;;4.59;71.06;98450.38;218613;1278;23201;-69
2022/02/15 22:26:11;;;;;;;;;;;;;;;4.54;71.24;98445.69;218731;1279;22940;-68
2022/02/15 22:31:24;;;;;;;;;;;;;;;4.50;71.19;98444.45;218878;1279;26069;-68
2022/02/15 22:36:41;;;;;;;;;;;;;;;4.48;71.55;98444.16;218822;1278;25460;-67
2022/02/15 22:41:53;;;;;;;;;;;;;;;4.45;71.73;98449.40;218892;1277;25206;-68
2022/02/15 22:47:24;;;;;;;;;;;;;;;4.43;71.73;98450.59;218847;1278;25205;-68
2022/02/15 22:52:45;;;;;;;;;;;;;;;4.42;72.00;98452.41;219044;1278;25925;-66
2022/02/15 22:58:04;;;;;;;;;;;;;;;4.40;72.12;98448.57;218939;1278;22762;-68
2022/02/15 23:03:25;;;;;;;;;;;;;;;4.39;72.25;98447.13;218692;1277;22865;-68
2022/02/15 23:19:53;;;;;;;;;;;;;;;4.37;72.49;98439.01;218814;1279;23189;-68
2022/02/15 23:25:32;;;;;;;;;;;;;;;4.36;72.53;98432.31;218858;1279;22539;-68
2022/02/15 23:31:25;;;;;;;;;;;;;;;;;;;;;
2022/02/15 23:37:05;;;;;;;;;;;;;;;4.32;72.82;98426.71;218741;1279;24279;-69
2022/02/15 23:42:40;;;;;;;;;;;;;;;4.30;73.07;98422.73;218677;1279;22763;-67
2022/02/15 23:48:13;;;;;;;;;;;;;;;4.31;73.14;98425.55;218598;1279;25253;-68
2022/02/15 23:53:27;;;;;;;;;;;;;;;4.31;73.39;98423.99;218733;1279;24304;-67
2022/02/15 23:58:42;;;;;;;;;;;;;;;;;;;;;
